Route Details

Aircraft Information
Group: European Fleet
Types: A30F, B738
Route Data
Distance: 696nm
Duration: 0h 00m
Origin METAR: EVRA 260150Z 03001KT 9999 1500 BCFG NSC 10/10 Q1024 NOSIG
Dest. METAR: EDDK 260150Z AUTO 13003KT CAVOK 10/10 Q1017 NOSIG
Freight Data
(for May 26, 2024)
Load Factor:
89%
Manifested Cargo: 82,648lbs
Financial History
Total Freight: 0lbs
Average Load: 0lbs/flt
Fuel Used: 0lbs
Avg. Fuel Used: 0lbs/flt
Fuel Expense: $0
Avg. Fuel Expense: $0
Avg. Fuel Cost: $0/lbs
Total Gross Income: $0
Pilot Pay: $0
Total Expenses: $0
Total Revenue: $0
Average Revenue: $0

Capitol Logistics 108




EVRA
Riga International Airport
Riga, LV
EDDK
Cologne Bonn Airport
Cologne, DE

Activity Log

Date Flight Route Aircraft Duration
No Flights Yet